Time;durP1;ratioP1;P1;durP2;ratioP2;P2;SDS_P1;SDS_P2;PMS_P1;PMS_P2;Temp;Humidity;BMP_temperature;BMP_pressure;BME280_temperature;BME280_humidity;BME280_pressure;Samples;Min_cycle;Max_cycle;Signal;HPM_P1;HPM_P2
2022/10/02 00:03:34;;;;;;;0.30;0.30;;;;;;;;;;5095132;28;20235;-63
2022/10/02 00:06:05;;;;;;;0.40;0.40;;;;;;;;;;5096054;28;20196;-63
2022/10/02 00:08:36;;;;;;;0.30;0.30;;;;;;;;;;5096533;28;20208;-63
2022/10/02 00:11:08;;;;;;;0.40;0.40;;;;;;;;;;5097619;28;20230;-63
2022/10/02 00:13:39;;;;;;;0.47;0.43;;;;;;;;;;5100285;28;20561;-63
2022/10/02 00:16:10;;;;;;;0.30;0.30;;;;;;;;;;5099815;28;20302;-63
2022/10/02 00:18:39;;;;;;;0.45;0.45;;;;;;;;;;5100582;28;20215;-63
2022/10/02 00:21:11;;;;;;;0.50;0.50;;;;;;;;;;5100442;28;20212;-63
2022/10/02 00:23:42;;;;;;;0.50;0.40;;;;;;;;;;5100133;28;20228;-63
2022/10/02 00:26:15;;;;;;;0.47;0.40;;;;;;;;;;5099524;28;20203;-63
2022/10/02 00:28:46;;;;;;;0.50;0.50;;;;;;;;;;5100385;28;20288;-64
2022/10/02 00:31:23;;;;;;;0.47;0.40;;;;;;;;;;5099758;28;20226;-63
2022/10/02 00:33:57;;;;;;;0.30;0.30;;;;;;;;;;5099826;28;20549;-63
2022/10/02 00:36:31;;;;;;;0.50;0.50;;;;;;;;;;5100325;28;20204;-63
2022/10/02 00:39:02;;;;;;;0.40;0.40;;;;;;;;;;5099780;28;20280;-62
2022/10/02 00:41:45;;;;;;;0.40;0.40;;;;;;;;;;5099812;28;20229;-64
2022/10/02 00:44:21;;;;;;;0.88;0.40;;;;;;;;;;5056124;28;20227;-63
2022/10/02 00:46:53;;;;;;;0.50;0.30;;;;;;;;;;5098279;28;20195;-63
2022/10/02 00:49:29;;;;;;;0.80;0.30;;;;;;;;;;5099862;28;20212;-63
2022/10/02 00:52:04;;;;;;;3.60;0.35;;;;;;;;;;5100209;28;20214;-63
2022/10/02 00:54:47;;;;;;;0.20;0.20;;;;;;;;;;5100181;28;20201;-63
2022/10/02 00:57:22;;;;;;;0.50;0.38;;;;;;;;;;5099151;28;20204;-63
2022/10/02 00:59:59;;;;;;;0.40;0.40;;;;;;;;;;5098258;28;20203;-63
2022/10/02 01:02:44;;;;;;;0.22;0.20;;;;;;;;;;5098265;28;20622;-63
2022/10/02 01:05:12;;;;;;;0.45;0.45;;;;;;;;;;5098341;28;20215;-63
2022/10/02 01:07:41;;;;;;;0.30;0.30;;;;;;;;;;5078446;28;20205;-63
2022/10/02 01:10:09;;;;;;;0.30;0.30;;;;;;;;;;5077847;28;20204;-63
2022/10/02 01:12:38;;;;;;;0.50;0.50;;;;;;;;;;5078467;28;20266;-63
2022/10/02 01:15:11;;;;;;;0.30;0.30;;;;;;;;;;5079116;28;20337;-63
2022/10/02 01:17:39;;;;;;;0.75;0.35;;;;;;;;;;5078798;28;20273;-63
2022/10/02 01:20:08;;;;;;;0.40;0.40;;;;;;;;;;5078892;28;20216;-63
2022/10/02 01:22:39;;;;;;;0.40;0.40;;;;;;;;;;5078561;28;20215;-63
2022/10/02 01:25:09;;;;;;;0.40;0.40;;;;;;;;;;5078899;28;20204;-63
2022/10/02 01:27:37;;;;;;;0.40;0.40;;;;;;;;;;5078660;28;20250;-63
2022/10/02 01:30:06;;;;;;;0.40;0.40;;;;;;;;;;5079085;28;20254;-63
2022/10/02 01:32:34;;;;;;;0.75;0.50;;;;;;;;;;5077854;28;20471;-63
2022/10/02 01:35:02;;;;;;;0.35;0.35;;;;;;;;;;5078012;28;20208;-63
2022/10/02 01:37:31;;;;;;;0.40;0.40;;;;;;;;;;5077117;28;20204;-63
2022/10/02 01:40:00;;;;;;;0.50;0.40;;;;;;;;;;5078150;28;20218;-63
2022/10/02 01:42:29;;;;;;;0.40;0.40;;;;;;;;;;5077562;28;20269;-63
2022/10/02 01:44:57;;;;;;;0.50;0.50;;;;;;;;;;5077604;28;20295;-63
2022/10/02 01:47:27;;;;;;;0.63;0.40;;;;;;;;;;5078256;28;20208;-63
2022/10/02 01:50:03;;;;;;;0.65;0.40;;;;;;;;;;5078676;28;20303;-63
2022/10/02 01:52:39;;;;;;;0.55;0.40;;;;;;;;;;5078187;28;20204;-63
2022/10/02 01:55:17;;;;;;;0.43;0.43;;;;;;;;;;5078746;28;20203;-63
2022/10/02 01:57:52;;;;;;;0.45;0.40;;;;;;;;;;5078320;28;20211;-63
2022/10/02 02:00:23;;;;;;;0.52;0.40;;;;;;;;;;5078231;28;20592;-64
2022/10/02 02:02:54;;;;;;;0.40;0.40;;;;;;;;;;5077864;28;20255;-64
2022/10/02 02:05:26;;;;;;;0.30;0.30;;;;;;;;;;5077939;28;20210;-63
2022/10/02 02:07:59;;;;;;;0.52;0.28;;;;;;;;;;5077639;28;20208;-63
2022/10/02 02:10:29;;;;;;;0.40;0.40;;;;;;;;;;5078558;28;20497;-63
2022/10/02 02:13:01;;;;;;;1.05;0.50;;;;;;;;;;5078336;28;20286;-63
2022/10/02 02:15:30;;;;;;;0.45;0.40;;;;;;;;;;5077484;28;20890;-63
2022/10/02 02:17:58;;;;;;;0.30;0.30;;;;;;;;;;5078162;28;20214;-63
2022/10/02 02:20:29;;;;;;;0.40;0.40;;;;;;;;;;5077956;28;20212;-63
2022/10/02 02:22:59;;;;;;;0.30;0.30;;;;;;;;;;5077722;28;20200;-63
2022/10/02 02:25:28;;;;;;;0.50;0.40;;;;;;;;;;5077792;28;20269;-63
2022/10/02 02:27:57;;;;;;;0.40;0.40;;;;;;;;;;5077746;28;20215;-63
2022/10/02 02:30:26;;;;;;;0.40;0.40;;;;;;;;;;5077336;28;20298;-63
2022/10/02 02:32:55;;;;;;;0.30;0.30;;;;;;;;;;5076952;28;20210;-63
2022/10/02 02:35:25;;;;;;;0.55;0.40;;;;;;;;;;5076510;28;20215;-63
2022/10/02 02:37:56;;;;;;;0.60;0.60;;;;;;;;;;5077668;28;20215;-63
2022/10/02 02:40:25;;;;;;;0.50;0.50;;;;;;;;;;5077323;28;20647;-63
2022/10/02 02:42:57;;;;;;;0.40;0.40;;;;;;;;;;5077268;28;20219;-63
2022/10/02 02:45:28;;;;;;;0.38;0.38;;;;;;;;;;5077165;28;20574;-63
2022/10/02 02:47:57;;;;;;;0.55;0.30;;;;;;;;;;5076945;28;20212;-63
2022/10/02 02:50:26;;;;;;;0.43;0.40;;;;;;;;;;5077391;28;20242;-63
2022/10/02 02:52:56;;;;;;;0.40;0.40;;;;;;;;;;5077659;28;20214;-63
2022/10/02 02:55:28;;;;;;;0.50;0.50;;;;;;;;;;5077537;28;20216;-63
2022/10/02 02:57:57;;;;;;;0.40;0.40;;;;;;;;;;5077625;28;20295;-63
2022/10/02 03:00:26;;;;;;;0.25;0.25;;;;;;;;;;5076038;28;20212;-63
2022/10/02 03:02:54;;;;;;;0.40;0.40;;;;;;;;;;5075755;28;20335;-63
2022/10/02 03:05:26;;;;;;;0.40;0.40;;;;;;;;;;5076288;28;20209;-63
2022/10/02 03:07:55;;;;;;;0.30;0.30;;;;;;;;;;5077277;28;20302;-63
2022/10/02 03:10:29;;;;;;;0.40;0.40;;;;;;;;;;5077485;28;20596;-63
2022/10/02 03:13:03;;;;;;;0.40;0.40;;;;;;;;;;5077055;28;20204;-63
2022/10/02 03:15:35;;;;;;;0.40;0.40;;;;;;;;;;5077071;28;20204;-63
2022/10/02 03:18:20;;;;;;;0.40;0.40;;;;;;;;;;5076881;28;20497;-63
2022/10/02 03:20:53;;;;;;;0.50;0.50;;;;;;;;;;5076354;28;20569;-63
2022/10/02 03:23:26;;;;;;;0.43;0.43;;;;;;;;;;5076825;28;20264;-63
2022/10/02 03:25:58;;;;;;;0.40;0.40;;;;;;;;;;5077350;28;20215;-63
2022/10/02 03:28:27;;;;;;;0.40;0.40;;;;;;;;;;5076717;28;20295;-63
2022/10/02 03:30:57;;;;;;;0.40;0.40;;;;;;;;;;5076603;28;20204;-63
2022/10/02 03:33:25;;;;;;;0.63;0.63;;;;;;;;;;5076127;28;20250;-63
2022/10/02 03:35:53;;;;;;;0.40;0.40;;;;;;;;;;5075636;28;20306;-63
2022/10/02 03:38:22;;;;;;;0.40;0.40;;;;;;;;;;5076100;28;20204;-63
2022/10/02 03:40:51;;;;;;;1.05;0.40;;;;;;;;;;5075966;28;20250;-63
2022/10/02 03:43:21;;;;;;;0.95;0.40;;;;;;;;;;5076018;28;20285;-63
2022/10/02 03:45:48;;;;;;;0.73;0.50;;;;;;;;;;5078361;28;20211;-63
2022/10/02 03:48:18;;;;;;;0.40;0.40;;;;;;;;;;5080320;28;20212;-63
2022/10/02 03:50:46;;;;;;;0.45;0.45;;;;;;;;;;5080795;28;20204;-63
2022/10/02 03:53:14;;;;;;;0.50;0.50;;;;;;;;;;5080086;28;20258;-63
2022/10/02 03:55:44;;;;;;;0.45;0.45;;;;;;;;;;5079929;28;20201;-63
2022/10/02 03:58:14;;;;;;;0.40;0.40;;;;;;;;;;5079929;28;20204;-63
2022/10/02 04:00:44;;;;;;;0.43;0.43;;;;;;;;;;5080675;28;20555;-63
2022/10/02 04:03:14;;;;;;;0.50;0.50;;;;;;;;;;5078660;28;20236;-63
2022/10/02 04:05:44;;;;;;;0.43;0.38;;;;;;;;;;5079682;28;20217;-63
2022/10/02 04:08:15;;;;;;;0.40;0.40;;;;;;;;;;5079200;28;20219;-63
2022/10/02 04:10:45;;;;;;;0.50;0.50;;;;;;;;;;5079419;28;20215;-63
2022/10/02 04:13:15;;;;;;;0.90;0.60;;;;;;;;;;5078990;28;20208;-63
2022/10/02 04:15:51;;;;;;;0.40;0.40;;;;;;;;;;5079154;28;20219;-63
2022/10/02 04:18:21;;;;;;;0.40;0.40;;;;;;;;;;5078931;28;20226;-63
2022/10/02 04:20:53;;;;;;;0.40;0.40;;;;;;;;;;5079154;28;20208;-63
2022/10/02 04:23:22;;;;;;;0.50;0.50;;;;;;;;;;5078837;28;20209;-63
2022/10/02 04:25:53;;;;;;;0.40;0.40;;;;;;;;;;5078868;28;20215;-63
2022/10/02 04:28:22;;;;;;;0.50;0.50;;;;;;;;;;5078666;28;20518;-63
2022/10/02 04:30:52;;;;;;;0.40;0.38;;;;;;;;;;5079180;28;20231;-63
2022/10/02 04:33:20;;;;;;;0.40;0.40;;;;;;;;;;5078995;28;20223;-63
2022/10/02 04:35:53;;;;;;;0.40;0.40;;;;;;;;;;5078608;28;20215;-63
2022/10/02 04:38:34;;;;;;;0.50;0.40;;;;;;;;;;5079337;28;20212;-63
2022/10/02 04:41:06;;;;;;;0.40;0.40;;;;;;;;;;5078393;28;20219;-63
2022/10/02 04:43:44;;;;;;;0.50;0.50;;;;;;;;;;5078778;28;20208;-63
2022/10/02 04:46:20;;;;;;;0.30;0.30;;;;;;;;;;5078478;28;20208;-63
2022/10/02 04:49:09;;;;;;;0.40;0.40;;;;;;;;;;5079388;28;20620;-63
2022/10/02 04:51:44;;;;;;;0.43;0.43;;;;;;;;;;5078145;28;20204;-63
2022/10/02 04:54:22;;;;;;;0.57;0.55;;;;;;;;;;5079492;28;20204;-63
2022/10/02 04:56:56;;;;;;;0.47;0.47;;;;;;;;;;5078627;28;20212;-63
2022/10/02 04:59:40;;;;;;;0.40;0.40;;;;;;;;;;5078955;28;20222;-63
2022/10/02 05:02:16;;;;;;;0.40;0.40;;;;;;;;;;5078579;28;20235;-63
2022/10/02 05:04:54;;;;;;;0.55;0.47;;;;;;;;;;5078499;28;20242;-63
2022/10/02 05:07:33;;;;;;;0.52;0.40;;;;;;;;;;5078336;28;20211;-63
2022/10/02 05:10:08;;;;;;;0.60;0.40;;;;;;;;;;5078474;28;20204;-63
2022/10/02 05:12:43;;;;;;;0.70;0.43;;;;;;;;;;5078750;28;20215;-63
2022/10/02 05:15:39;;;;;;;0.40;0.40;;;;;;;;;;5079405;28;20226;-63
2022/10/02 05:18:22;;;;;;;0.40;0.32;;;;;;;;;;5078621;28;20207;-63
2022/10/02 05:21:07;;;;;;;0.40;0.35;;;;;;;;;;5078409;28;20212;-63
2022/10/02 05:23:46;;;;;;;0.45;0.45;;;;;;;;;;5078509;28;20605;-63
2022/10/02 05:26:23;;;;;;;0.30;0.30;;;;;;;;;;5078447;28;20211;-63
2022/10/02 05:28:59;;;;;;;0.60;0.40;;;;;;;;;;5078688;28;20668;-63
2022/10/02 05:31:32;;;;;;;0.40;0.40;;;;;;;;;;5078019;28;20204;-63
2022/10/02 05:34:23;;;;;;;0.40;0.40;;;;;;;;;;5077701;28;20231;-63
2022/10/02 05:36:58;;;;;;;0.50;0.50;;;;;;;;;;5057560;28;20219;-63
2022/10/02 05:39:29;;;;;;;0.47;0.40;;;;;;;;;;5077685;28;20208;-63
2022/10/02 05:42:00;;;;;;;0.30;0.30;;;;;;;;;;5077213;28;20227;-63
2022/10/02 05:44:33;;;;;;;0.45;0.45;;;;;;;;;;5078350;28;20530;-63
2022/10/02 05:47:02;;;;;;;0.50;0.40;;;;;;;;;;5077897;28;20205;-63
2022/10/02 05:49:33;;;;;;;0.32;0.32;;;;;;;;;;5078722;28;20204;-63
2022/10/02 05:52:03;;;;;;;0.50;0.50;;;;;;;;;;5078203;28;20219;-63
2022/10/02 05:54:35;;;;;;;0.40;0.40;;;;;;;;;;5078662;28;20196;-63
2022/10/02 05:57:07;;;;;;;0.50;0.50;;;;;;;;;;5078525;28;20235;-63
2022/10/02 05:59:38;;;;;;;0.40;0.40;;;;;;;;;;5078762;28;20205;-63
2022/10/02 06:02:10;;;;;;;0.32;0.32;;;;;;;;;;5078449;28;20297;-63
2022/10/02 06:04:40;;;;;;;0.40;0.40;;;;;;;;;;5078268;28;20251;-63
2022/10/02 06:07:09;;;;;;;0.30;0.30;;;;;;;;;;5078535;28;20632;-63
2022/10/02 06:09:48;;;;;;;0.63;0.63;;;;;;;;;;5076924;28;20204;-63
2022/10/02 06:12:19;;;;;;;0.73;0.40;;;;;;;;;;5077599;28;20679;-63
2022/10/02 06:14:49;;;;;;;0.50;0.50;;;;;;;;;;5077845;28;20205;-63
2022/10/02 06:17:20;;;;;;;1.08;0.50;;;;;;;;;;5078110;28;20269;-63
2022/10/02 06:19:51;;;;;;;0.38;0.38;;;;;;;;;;5077697;28;20204;-63
2022/10/02 06:22:20;;;;;;;0.55;0.40;;;;;;;;;;5077486;28;20204;-63
2022/10/02 06:24:56;;;;;;;0.43;0.43;;;;;;;;;;5077214;28;20228;-63
2022/10/02 06:27:29;;;;;;;1.05;0.60;;;;;;;;;;5077459;28;20601;-63
2022/10/02 06:29:58;;;;;;;0.40;0.40;;;;;;;;;;5077808;28;20235;-63
2022/10/02 06:32:31;;;;;;;0.40;0.40;;;;;;;;;;5077776;28;20209;-63
2022/10/02 06:34:59;;;;;;;0.30;0.30;;;;;;;;;;5077470;28;20201;-63
2022/10/02 06:37:48;;;;;;;0.47;0.47;;;;;;;;;;5077444;28;20215;-63
2022/10/02 06:40:30;;;;;;;0.50;0.40;;;;;;;;;;5079190;28;20200;-63
2022/10/02 06:43:04;;;;;;;0.50;0.50;;;;;;;;;;5081181;28;20203;-63
2022/10/02 06:45:35;;;;;;;0.40;0.40;;;;;;;;;;5097176;28;20227;-63
2022/10/02 06:48:06;;;;;;;0.40;0.40;;;;;;;;;;5097330;28;20211;-63
2022/10/02 06:50:42;;;;;;;0.55;0.50;;;;;;;;;;5097469;28;20516;-63
2022/10/02 06:53:19;;;;;;;0.45;0.40;;;;;;;;;;5097855;28;20203;-63
2022/10/02 06:55:48;;;;;;;0.50;0.50;;;;;;;;;;5097876;28;20199;-63
2022/10/02 06:58:31;;;;;;;0.40;0.40;;;;;;;;;;5097729;28;20332;-63
2022/10/02 07:01:03;;;;;;;0.70;0.50;;;;;;;;;;5097157;28;20203;-63
2022/10/02 07:03:40;;;;;;;1.70;0.47;;;;;;;;;;5097119;28;20542;-63
2022/10/02 07:06:14;;;;;;;0.50;0.40;;;;;;;;;;5097491;28;20645;-63
2022/10/02 07:08:50;;;;;;;0.40;0.40;;;;;;;;;;5084544;28;20507;-63
2022/10/02 07:11:22;;;;;;;0.82;0.60;;;;;;;;;;5076978;28;20215;-63
2022/10/02 07:14:02;;;;;;;0.50;0.50;;;;;;;;;;5076862;28;20204;-63
2022/10/02 07:16:39;;;;;;;0.63;0.55;;;;;;;;;;5076928;28;20204;-63
2022/10/02 07:19:18;;;;;;;0.40;0.40;;;;;;;;;;5076245;28;20590;-63
2022/10/02 07:21:47;;;;;;;0.85;0.50;;;;;;;;;;5076946;28;20593;-63
2022/10/02 07:24:29;;;;;;;0.85;0.60;;;;;;;;;;5076938;28;20255;-63
2022/10/02 07:26:59;;;;;;;0.40;0.40;;;;;;;;;;5074602;28;20193;-63
2022/10/02 07:29:33;;;;;;;0.77;0.47;;;;;;;;;;5076438;28;20212;-63
2022/10/02 07:32:21;;;;;;;0.60;0.40;;;;;;;;;;5076586;28;20211;-63
2022/10/02 07:34:52;;;;;;;1.00;0.40;;;;;;;;;;5078020;28;20197;-63
2022/10/02 07:37:25;;;;;;;0.88;0.60;;;;;;;;;;5089719;28;20218;-63
2022/10/02 07:40:09;;;;;;;0.50;0.50;;;;;;;;;;5083212;28;20504;-63
2022/10/02 07:42:51;;;;;;;0.80;0.50;;;;;;;;;;5094717;28;20209;-63
2022/10/02 07:45:30;;;;;;;1.05;0.50;;;;;;;;;;5096119;28;20238;-63
2022/10/02 07:48:07;;;;;;;0.55;0.40;;;;;;;;;;5096603;28;20200;-63
2022/10/02 07:50:40;;;;;;;1.08;0.63;;;;;;;;;;5096306;28;20196;-63
2022/10/02 07:53:12;;;;;;;0.70;0.60;;;;;;;;;;5096600;28;20203;-63
2022/10/02 07:55:41;;;;;;;0.50;0.50;;;;;;;;;;5096482;28;20200;-63
2022/10/02 07:58:12;;;;;;;0.98;0.50;;;;;;;;;;5096499;28;20222;-63
2022/10/02 08:00:44;;;;;;;1.35;0.50;;;;;;;;;;5096437;28;20219;-63
2022/10/02 08:03:13;;;;;;;2.47;0.60;;;;;;;;;;5087520;28;20224;-63
2022/10/02 08:05:43;;;;;;;0.70;0.50;;;;;;;;;;5076583;28;20505;-63
2022/10/02 08:08:12;;;;;;;1.52;0.47;;;;;;;;;;5076039;28;20213;-63
2022/10/02 08:10:42;;;;;;;1.10;0.50;;;;;;;;;;5076540;28;20208;-63
2022/10/02 08:13:13;;;;;;;0.57;0.50;;;;;;;;;;5076273;28;20636;-63
2022/10/02 08:15:44;;;;;;;0.93;0.60;;;;;;;;;;5076329;28;20208;-63
2022/10/02 08:18:14;;;;;;;0.60;0.60;;;;;;;;;;5075835;28;20215;-63
2022/10/02 08:20:43;;;;;;;0.90;0.60;;;;;;;;;;5075412;28;20208;-63
2022/10/02 08:23:15;;;;;;;1.50;0.60;;;;;;;;;;5075524;28;20205;-63
2022/10/02 08:25:46;;;;;;;0.47;0.40;;;;;;;;;;5080406;28;20234;-65
2022/10/02 08:28:18;;;;;;;0.70;0.60;;;;;;;;;;5082574;28;20228;-64
2022/10/02 08:30:47;;;;;;;1.15;0.50;;;;;;;;;;5075769;28;20197;-64
2022/10/02 08:33:16;;;;;;;0.93;0.50;;;;;;;;;;5078345;28;20204;-64
2022/10/02 08:35:47;;;;;;;1.45;0.50;;;;;;;;;;5078263;28;20315;-63
2022/10/02 08:38:26;;;;;;;1.38;0.70;;;;;;;;;;5079182;28;20483;-63
2022/10/02 08:41:15;;;;;;;0.80;0.40;;;;;;;;;;5078921;28;20693;-63
2022/10/02 08:44:00;;;;;;;0.88;0.50;;;;;;;;;;5078785;28;20281;-63
2022/10/02 08:46:45;;;;;;;0.57;0.50;;;;;;;;;;5077676;28;20530;-63
2022/10/02 08:49:31;;;;;;;1.42;0.60;;;;;;;;;;5077902;28;20196;-63
2022/10/02 08:52:13;;;;;;;1.15;0.57;;;;;;;;;;5078620;28;20201;-63
2022/10/02 08:54:58;;;;;;;1.15;0.55;;;;;;;;;;5076131;28;20216;-63
2022/10/02 08:57:34;;;;;;;2.05;0.52;;;;;;;;;;5078788;28;20215;-63
2022/10/02 09:00:14;;;;;;;1.08;0.60;;;;;;;;;;5078452;28;20199;-63
2022/10/02 09:03:09;;;;;;;0.75;0.60;;;;;;;;;;5078180;28;20236;-63
2022/10/02 09:05:58;;;;;;;0.60;0.60;;;;;;;;;;5078331;28;20239;-63
2022/10/02 09:08:45;;;;;;;1.85;0.80;;;;;;;;;;5078116;28;20213;-63
2022/10/02 09:11:21;;;;;;;1.95;0.60;;;;;;;;;;5078633;28;20645;-63
2022/10/02 09:14:01;;;;;;;1.83;0.70;;;;;;;;;;5077735;28;20204;-63
2022/10/02 09:16:30;;;;;;;0.82;0.55;;;;;;;;;;5078093;28;20253;-63
2022/10/02 09:19:01;;;;;;;0.70;0.70;;;;;;;;;;5077796;28;20211;-63
2022/10/02 09:21:51;;;;;;;1.67;0.60;;;;;;;;;;5077833;28;20213;-63
2022/10/02 09:24:31;;;;;;;1.40;0.60;;;;;;;;;;5077623;28;20284;-63
2022/10/02 09:27:12;;;;;;;0.70;0.55;;;;;;;;;;5077936;28;20244;-63
2022/10/02 09:30:04;;;;;;;0.93;0.50;;;;;;;;;;5078335;28;20208;-63
2022/10/02 09:32:52;;;;;;;0.50;0.50;;;;;;;;;;5078045;28;20204;-63
2022/10/02 09:35:36;;;;;;;2.03;0.60;;;;;;;;;;5077646;28;20203;-63
2022/10/02 09:38:20;;;;;;;1.33;0.68;;;;;;;;;;5077204;28;20205;-63
2022/10/02 09:41:11;;;;;;;1.73;0.50;;;;;;;;;;5077327;28;20215;-63
2022/10/02 09:44:13;;;;;;;1.02;0.57;;;;;;;;;;5003508;28;20564;-63
2022/10/02 09:46:53;;;;;;;0.60;0.60;;;;;;;;;;5077575;28;20223;-63
2022/10/02 09:49:47;;;;;;;1.00;0.50;;;;;;;;;;5076910;28;20208;-63
2022/10/02 09:52:33;;;;;;;1.15;0.60;;;;;;;;;;5077157;28;20200;-63
2022/10/02 09:55:35;;;;;;;0.70;0.50;;;;;;;;;;5077368;28;20234;-63
2022/10/02 09:58:17;;;;;;;1.25;0.70;;;;;;;;;;5077595;28;20203;-63
2022/10/02 10:00:56;;;;;;;0.88;0.57;;;;;;;;;;5077424;28;20231;-63
2022/10/02 10:03:35;;;;;;;0.90;0.70;;;;;;;;;;5076965;28;20242;-63
2022/10/02 10:06:20;;;;;;;1.17;0.60;;;;;;;;;;5077523;28;20223;-63
2022/10/02 10:08:56;;;;;;;1.02;0.70;;;;;;;;;;5077213;28;20616;-63
2022/10/02 10:11:41;;;;;;;0.52;0.52;;;;;;;;;;5077222;28;20212;-63
2022/10/02 10:14:23;;;;;;;0.60;0.60;;;;;;;;;;5064847;28;20210;-63
2022/10/02 10:17:18;;;;;;;0.73;0.43;;;;;;;;;;5074722;28;20219;-63
2022/10/02 10:20:00;;;;;;;1.23;0.65;;;;;;;;;;5076813;28;20924;-63
2022/10/02 10:22:42;;;;;;;0.73;0.50;;;;;;;;;;5076822;28;20714;-63
2022/10/02 10:25:30;;;;;;;1.20;0.50;;;;;;;;;;5075335;28;20629;-63
2022/10/02 10:28:12;;;;;;;0.70;0.55;;;;;;;;;;5075912;28;20660;-63
2022/10/02 10:30:50;;;;;;;1.20;0.73;;;;;;;;;;5076595;28;20207;-63
2022/10/02 10:33:27;;;;;;;0.73;0.60;;;;;;;;;;5076496;28;20211;-63
2022/10/02 10:38:31;;;;;;;0.98;0.63;;;;;;;;;;5076168;28;20219;-63
2022/10/02 10:39:00;;;;;;;1.52;0.60;;;;;;;;;;5076504;28;20294;-63
2022/10/02 10:41:38;;;;;;;1.42;0.90;;;;;;;;;;5076827;28;20290;-63
2022/10/02 10:44:32;;;;;;;0.70;0.50;;;;;;;;;;5076323;28;20219;-63
2022/10/02 10:47:09;;;;;;;1.17;0.82;;;;;;;;;;5076342;28;20251;-63
2022/10/02 10:50:01;;;;;;;2.28;1.05;;;;;;;;;;5076480;28;20585;-64
2022/10/02 10:52:37;;;;;;;2.20;1.20;;;;;;;;;;5076200;28;20242;-63
2022/10/02 10:55:11;;;;;;;3.85;1.30;;;;;;;;;;5075067;28;20243;-63
2022/10/02 10:57:51;;;;;;;5.25;2.10;;;;;;;;;;5075822;28;20631;-64
2022/10/02 11:00:20;;;;;;;5.22;2.50;;;;;;;;;;5075899;28;20205;-64
2022/10/02 11:03:03;;;;;;;10.48;3.00;;;;;;;;;;5076307;28;20528;-64
2022/10/02 11:05:52;;;;;;;7.30;3.13;;;;;;;;;;5076201;28;20208;-64
2022/10/02 11:08:31;;;;;;;11.25;3.45;;;;;;;;;;5076867;28;20491;-64
2022/10/02 11:11:05;;;;;;;9.48;3.25;;;;;;;;;;5076210;28;20203;-64
2022/10/02 11:13:50;;;;;;;12.05;3.88;;;;;;;;;;5075838;28;20286;-64
2022/10/02 11:16:24;;;;;;;7.88;3.78;;;;;;;;;;5076507;28;20283;-64
2022/10/02 11:19:10;;;;;;;9.88;4.03;;;;;;;;;;5075805;28;20269;-63
2022/10/02 11:21:57;;;;;;;31.52;6.28;;;;;;;;;;5076498;28;20541;-63
2022/10/02 11:24:34;;;;;;;65.68;11.25;;;;;;;;;;5050960;28;20196;-63
2022/10/02 11:27:08;;;;;;;77.45;12.57;;;;;;;;;;5095924;28;20242;-63
2022/10/02 11:29:54;;;;;;;59.20;12.13;;;;;;;;;;5096114;28;20575;-63
2022/10/02 11:32:36;;;;;;;56.88;11.23;;;;;;;;;;5095829;28;20199;-63
2022/10/02 11:35:27;;;;;;;51.67;10.57;;;;;;;;;;5096422;28;20204;-63
2022/10/02 11:38:02;;;;;;;39.08;10.27;;;;;;;;;;5080939;28;20284;-63
2022/10/02 11:40:39;;;;;;;43.92;9.93;;;;;;;;;;5096043;28;20293;-63
2022/10/02 11:43:30;;;;;;;44.95;9.40;;;;;;;;;;5096105;28;20231;-64
2022/10/02 11:46:07;;;;;;;43.25;9.60;;;;;;;;;;5096375;28;20586;-64
2022/10/02 11:48:55;;;;;;;39.35;9.25;;;;;;;;;;5095771;28;20211;-64
2022/10/02 11:51:40;;;;;;;36.42;9.10;;;;;;;;;;5093663;28;20203;-64
2022/10/02 11:54:34;;;;;;;38.00;8.30;;;;;;;;;;5075522;28;20302;-63
2022/10/02 11:57:10;;;;;;;30.05;7.78;;;;;;;;;;5039380;28;20219;-63
2022/10/02 11:59:52;;;;;;;23.73;7.90;;;;;;;;;;5075353;28;20204;-63
2022/10/02 12:02:24;;;;;;;28.48;8.23;;;;;;;;;;5063309;28;20251;-63
2022/10/02 12:05:03;;;;;;;23.15;7.70;;;;;;;;;;5074626;28;20212;-63
2022/10/02 12:07:38;;;;;;;28.67;8.73;;;;;;;;;;5079050;28;20223;-63
2022/10/02 12:10:18;;;;;;;25.70;7.28;;;;;;;;;;5079253;28;20203;-63
2022/10/02 12:12:50;;;;;;;26.30;7.38;;;;;;;;;;5078910;28;20204;-63
2022/10/02 12:15:25;;;;;;;25.55;7.70;;;;;;;;;;5079295;28;20204;-63
2022/10/02 12:18:00;;;;;;;21.38;6.22;;;;;;;;;;5078579;28;20218;-63
2022/10/02 12:29:08;;;;;;;18.55;6.07;;;;;;;;;;5082551;28;20207;-63
2022/10/02 12:31:49;;;;;;;16.80;6.25;;;;;;;;;;5099128;28;20210;-63
2022/10/02 12:34:27;;;;;;;15.25;5.93;;;;;;;;;;5099177;28;20246;-63
2022/10/02 12:36:58;;;;;;;18.80;6.10;;;;;;;;;;5099139;28;20196;-63
2022/10/02 12:39:30;;;;;;;17.05;5.90;;;;;;;;;;5098967;28;20207;-63
2022/10/02 12:42:02;;;;;;;17.17;6.00;;;;;;;;;;5099408;28;20484;-63
2022/10/02 12:44:50;;;;;;;14.10;5.63;;;;;;;;;;5084033;28;20636;-63
2022/10/02 12:47:32;;;;;;;15.55;5.50;;;;;;;;;;5050934;28;20660;-63
2022/10/02 12:50:04;;;;;;;13.27;5.47;;;;;;;;;;5098607;28;20595;-63
2022/10/02 12:52:50;;;;;;;11.73;5.28;;;;;;;;;;5099244;28;20211;-63
2022/10/02 12:55:39;;;;;;;13.32;5.25;;;;;;;;;;5085909;28;20601;-63
2022/10/02 12:58:12;;;;;;;9.25;4.47;;;;;;;;;;5097771;28;20200;-63
2022/10/02 13:00:50;;;;;;;11.77;5.30;;;;;;;;;;5098622;28;20222;-63
2022/10/02 13:03:35;;;;;;;15.50;4.75;;;;;;;;;;5098129;28;20347;-63
2022/10/02 13:06:22;;;;;;;11.18;4.70;;;;;;;;;;5097688;28;20581;-63
2022/10/02 13:09:08;;;;;;;13.15;4.70;;;;;;;;;;5063553;28;20199;-63
2022/10/02 13:11:42;;;;;;;9.52;4.80;;;;;;;;;;5097436;28;20227;-63
2022/10/02 13:14:16;;;;;;;12.65;4.10;;;;;;;;;;5088308;28;20526;-63
2022/10/02 13:17:04;;;;;;;8.80;4.45;;;;;;;;;;5076762;28;20239;-63
2022/10/02 13:19:36;;;;;;;10.35;4.50;;;;;;;;;;5077023;28;20204;-63
2022/10/02 13:22:08;;;;;;;10.32;4.53;;;;;;;;;;5076955;28;20215;-63
2022/10/02 13:24:48;;;;;;;8.95;4.30;;;;;;;;;;5076797;28;20595;-63
2022/10/02 13:27:22;;;;;;;10.90;4.47;;;;;;;;;;5077149;28;20228;-63
2022/10/02 13:30:01;;;;;;;9.60;4.00;;;;;;;;;;5076406;28;20203;-63
2022/10/02 13:32:43;;;;;;;7.22;4.10;;;;;;;;;;5075956;28;20227;-63
2022/10/02 13:35:26;;;;;;;7.60;4.05;;;;;;;;;;5074316;28;20212;-63
2022/10/02 13:37:59;;;;;;;7.03;3.85;;;;;;;;;;5077069;28;20505;-63
2022/10/02 13:40:31;;;;;;;8.13;3.83;;;;;;;;;;5076854;28;20242;-63
2022/10/02 13:43:24;;;;;;;7.80;3.72;;;;;;;;;;5094929;28;20261;-63
2022/10/02 13:45:56;;;;;;;7.82;4.03;;;;;;;;;;5096816;28;20210;-63
2022/10/02 13:48:27;;;;;;;7.53;3.60;;;;;;;;;;5095815;28;20227;-63
2022/10/02 13:51:00;;;;;;;6.82;3.42;;;;;;;;;;5097193;28;20204;-63
2022/10/02 13:53:32;;;;;;;8.15;3.55;;;;;;;;;;5096932;28;20211;-63
2022/10/02 13:56:06;;;;;;;7.88;3.55;;;;;;;;;;5096672;28;20306;-63
2022/10/02 13:58:42;;;;;;;6.13;3.05;;;;;;;;;;5096438;28;20210;-63
2022/10/02 14:01:15;;;;;;;7.15;3.40;;;;;;;;;;5096201;28;20366;-63
2022/10/02 14:03:49;;;;;;;6.95;3.67;;;;;;;;;;5096193;28;20200;-63
2022/10/02 14:06:20;;;;;;;7.40;3.30;;;;;;;;;;5096286;28;20211;-63
2022/10/02 14:08:58;;;;;;;6.30;3.35;;;;;;;;;;5091803;28;20582;-63
2022/10/02 14:11:31;;;;;;;8.35;3.45;;;;;;;;;;5075034;28;20215;-63
2022/10/02 14:14:09;;;;;;;5.38;3.30;;;;;;;;;;5075117;28;20215;-63
2022/10/02 14:16:44;;;;;;;6.00;3.20;;;;;;;;;;5075649;28;20200;-63
2022/10/02 14:19:29;;;;;;;6.13;2.70;;;;;;;;;;5076047;28;20585;-63
2022/10/02 14:22:04;;;;;;;5.32;2.92;;;;;;;;;;5075692;28;20204;-63
2022/10/02 14:25:03;;;;;;;5.85;3.05;;;;;;;;;;5075774;28;20577;-63
2022/10/02 14:27:58;;;;;;;5.55;3.10;;;;;;;;;;5075090;28;20325;-63
2022/10/02 14:30:31;;;;;;;6.57;2.80;;;;;;;;;;5074459;28;20240;-63
2022/10/02 14:33:01;;;;;;;4.65;2.75;;;;;;;;;;5074900;28;20271;-63
2022/10/02 14:35:35;;;;;;;4.97;2.58;;;;;;;;;;5075868;28;20208;-63
2022/10/02 14:38:13;;;;;;;5.00;2.80;;;;;;;;;;5094037;28;20203;-64
2022/10/02 14:40:45;;;;;;;6.00;2.90;;;;;;;;;;5094871;28;20204;-64
2022/10/02 14:43:26;;;;;;;4.18;2.50;;;;;;;;;;5094992;28;20210;-64
2022/10/02 14:45:59;;;;;;;3.40;2.47;;;;;;;;;;5095594;28;20211;-64
2022/10/02 14:48:36;;;;;;;6.15;2.70;;;;;;;;;;5095858;28;20314;-63
2022/10/02 14:51:14;;;;;;;3.58;2.40;;;;;;;;;;5095617;28;20302;-64
2022/10/02 14:53:57;;;;;;;3.78;2.22;;;;;;;;;;5094949;28;20211;-64
2022/10/02 14:56:31;;;;;;;3.05;2.22;;;;;;;;;;5078153;28;20203;-64
2022/10/02 14:59:08;;;;;;;4.28;2.47;;;;;;;;;;5095536;28;20207;-64
2022/10/02 15:01:41;;;;;;;4.20;2.55;;;;;;;;;;5094156;28;20233;-64
2022/10/02 15:04:26;;;;;;;2.88;2.45;;;;;;;;;;5083360;28;20204;-64
2022/10/02 15:06:59;;;;;;;3.60;2.15;;;;;;;;;;5073918;28;20672;-64
2022/10/02 15:09:30;;;;;;;2.70;1.90;;;;;;;;;;5075189;28;20200;-64
2022/10/02 15:12:13;;;;;;;2.72;2.05;;;;;;;;;;5074648;28;20200;-64
2022/10/02 15:14:48;;;;;;;4.68;2.35;;;;;;;;;;5073628;28;20273;-64
2022/10/02 15:20:06;;;;;;;3.85;2.53;;;;;;;;;;5074002;28;20755;-64
2022/10/02 15:22:37;;;;;;;3.08;2.20;;;;;;;;;;5074505;28;20208;-63
2022/10/02 15:25:13;;;;;;;3.47;2.08;;;;;;;;;;5074018;28;20215;-63
2022/10/02 15:27:43;;;;;;;2.72;2.20;;;;;;;;;;5073891;28;20238;-63
2022/10/02 15:30:17;;;;;;;3.08;2.00;;;;;;;;;;5074586;28;20214;-63
2022/10/02 15:32:49;;;;;;;3.33;2.03;;;;;;;;;;5074646;28;20195;-63
2022/10/02 15:35:25;;;;;;;2.70;2.00;;;;;;;;;;5075800;28;20204;-63
2022/10/02 15:38:03;;;;;;;2.60;1.80;;;;;;;;;;5075244;28;20199;-63
2022/10/02 15:40:34;;;;;;;2.67;1.80;;;;;;;;;;5074967;28;20215;-63
2022/10/02 15:43:19;;;;;;;3.03;1.90;;;;;;;;;;5079578;28;20215;-63
2022/10/02 15:45:59;;;;;;;2.45;1.70;;;;;;;;;;5078374;28;20496;-63